createdAt,value
2023-04-02T00:01:34.458Z,1.41
2023-04-02T00:04:13.328Z,1.32
2023-04-02T00:06:40.713Z,1.30
2023-04-02T00:09:29.836Z,1.30
2023-04-02T00:11:57.705Z,1.33
2023-04-02T00:14:28.375Z,1.20
2023-04-02T00:16:56.922Z,1.30
2023-04-02T00:19:30.758Z,1.32
2023-04-02T00:21:59.267Z,1.33
2023-04-02T00:24:26.023Z,1.37
2023-04-02T00:26:54.009Z,1.35
2023-04-02T00:29:21.240Z,1.34
2023-04-02T00:31:51.445Z,1.34
2023-04-02T00:34:22.396Z,1.38
2023-04-02T00:36:50.375Z,1.32
2023-04-02T00:39:24.060Z,1.30
2023-04-02T00:41:54.123Z,1.36
2023-04-02T00:44:21.141Z,1.36
2023-04-02T00:46:50.785Z,1.34
2023-04-02T00:49:22.571Z,1.27
2023-04-02T00:51:52.784Z,1.21
2023-04-02T00:54:23.099Z,1.18
2023-04-02T00:56:53.498Z,1.22
2023-04-02T00:59:26.859Z,1.26
2023-04-02T01:01:58.931Z,1.18
2023-04-02T01:04:32.751Z,1.19
2023-04-02T01:07:02.616Z,1.21
2023-04-02T01:09:42.456Z,1.29
2023-04-02T01:12:30.004Z,1.19
2023-04-02T01:15:07.112Z,1.04
2023-04-02T01:17:50.614Z,1.08
2023-04-02T01:20:59.688Z,1.06
2023-04-02T01:23:32.403Z,1.01
2023-04-02T01:26:06.424Z,1.01
2023-04-02T01:29:01.325Z,0.99
2023-04-02T01:31:29.750Z,0.94
2023-04-02T01:33:57.036Z,0.91
2023-04-02T01:36:31.758Z,0.90
2023-04-02T01:39:08.057Z,0.87
2023-04-02T01:41:43.459Z,0.81
2023-04-02T01:44:18.494Z,0.85
2023-04-02T01:46:48.805Z,0.93
2023-04-02T01:49:19.649Z,1.01
2023-04-02T01:51:50.726Z,0.93
2023-04-02T01:54:18.267Z,0.90
2023-04-02T01:56:46.400Z,0.93
2023-04-02T01:59:19.882Z,0.93
2023-04-02T02:01:51.204Z,0.89
2023-04-02T02:04:18.954Z,0.81
2023-04-02T02:06:47.159Z,0.75
2023-04-02T02:09:19.800Z,0.75
2023-04-02T02:11:46.648Z,0.73
2023-04-02T02:14:16.985Z,0.64
2023-04-02T02:16:45.659Z,0.65
2023-04-02T02:19:22.380Z,0.63
2023-04-02T02:21:52.061Z,0.58
2023-04-02T02:24:22.853Z,0.52
2023-04-02T02:27:03.488Z,0.53
2023-04-02T02:29:36.808Z,0.49
2023-04-02T02:32:06.307Z,0.43
2023-04-02T02:34:39.053Z,0.42
2023-04-02T02:37:12.948Z,0.43
2023-04-02T02:39:43.217Z,0.47
2023-04-02T02:42:15.724Z,0.51
2023-04-02T02:44:47.441Z,0.54
2023-04-02T02:47:16.496Z,0.49
2023-04-02T02:49:45.874Z,0.46
2023-04-02T02:52:19.221Z,0.48
2023-04-02T02:54:49.483Z,0.49
2023-04-02T02:57:21.503Z,0.56
2023-04-02T02:59:51.089Z,0.57
2023-04-02T03:02:19.058Z,0.53
2023-04-02T03:04:50.019Z,0.51
2023-04-02T03:07:17.719Z,0.56
2023-04-02T03:09:52.482Z,0.56
2023-04-02T03:12:42.305Z,0.56
2023-04-02T03:15:18.805Z,0.50
2023-04-02T03:17:51.220Z,0.50
2023-04-02T03:20:24.364Z,0.50
2023-04-02T03:22:57.484Z,0.46
2023-04-02T03:25:35.854Z,0.50
2023-04-02T03:28:08.569Z,0.49
2023-04-02T03:30:43.028Z,0.52
2023-04-02T03:33:15.205Z,0.53
2023-04-02T03:35:47.600Z,0.52
2023-04-02T03:38:20.336Z,0.58
2023-04-02T03:40:58.227Z,0.65
2023-04-02T03:43:27.067Z,0.65
2023-04-02T03:46:00.164Z,0.60
2023-04-02T03:48:34.568Z,0.62
2023-04-02T03:51:07.985Z,0.58
2023-04-02T03:53:34.775Z,0.55
2023-04-02T03:56:02.297Z,0.57
2023-04-02T03:58:35.143Z,0.69
2023-04-02T04:01:08.883Z,0.73
2023-04-02T04:03:41.781Z,0.72
2023-04-02T04:06:12.016Z,0.66
2023-04-02T04:08:44.917Z,0.58
2023-04-02T04:11:15.908Z,0.54
2023-04-02T04:13:49.282Z,0.54
2023-04-02T04:16:22.449Z,0.50
2023-04-02T04:18:53.300Z,0.48
2023-04-02T04:21:22.990Z,0.48
2023-04-02T04:23:51.036Z,0.47
2023-04-02T04:26:22.973Z,0.39
2023-04-02T04:28:57.350Z,0.38
2023-04-02T04:31:32.239Z,0.35
2023-04-02T04:34:05.067Z,0.27
2023-04-02T04:36:36.372Z,0.32
2023-04-02T04:39:08.345Z,0.36
2023-04-02T04:41:38.665Z,0.35
2023-04-02T04:44:14.587Z,0.33
2023-04-02T04:46:47.393Z,0.30
2023-04-02T04:49:19.744Z,0.35
2023-04-02T04:51:50.963Z,0.34
2023-04-02T04:54:18.041Z,0.27
2023-04-02T04:56:48.189Z,0.34
2023-04-02T04:59:20.997Z,0.41
2023-04-02T05:01:55.683Z,0.47
2023-04-02T05:04:27.569Z,0.43
2023-04-02T05:06:57.183Z,0.36
2023-04-02T05:09:29.475Z,0.39
2023-04-02T05:12:06.412Z,0.41
2023-04-02T05:14:40.088Z,0.36
2023-04-02T05:17:13.400Z,0.29
2023-04-02T05:19:45.721Z,0.30
2023-04-02T05:22:20.107Z,0.33
2023-04-02T05:25:07.323Z,0.37
2023-04-02T05:27:40.108Z,0.38
2023-04-02T05:30:13.663Z,0.35
2023-04-02T05:32:46.607Z,0.42
2023-04-02T05:35:18.525Z,0.43
2023-04-02T05:37:46.032Z,0.48
2023-04-02T05:40:20.050Z,0.52
2023-04-02T05:42:49.729Z,0.54
2023-04-02T05:45:25.648Z,0.51
2023-04-02T05:47:56.297Z,0.50
2023-04-02T05:50:27.827Z,0.48
2023-04-02T05:52:58.648Z,0.56
2023-04-02T05:55:37.917Z,0.70
2023-04-02T05:58:33.862Z,0.75
2023-04-02T06:01:13.885Z,0.81
2023-04-02T06:03:49.455Z,0.88
2023-04-02T06:06:24.208Z,0.98
2023-04-02T06:08:57.612Z,1.08
2023-04-02T06:11:28.544Z,1.13
2023-04-02T06:13:55.458Z,1.17
2023-04-02T06:16:26.943Z,1.25
2023-04-02T06:18:56.143Z,1.41
2023-04-02T06:21:22.861Z,1.56
2023-04-02T06:23:55.324Z,1.71
2023-04-02T06:26:27.580Z,1.90
2023-04-02T06:29:01.100Z,2.07
2023-04-02T06:31:34.484Z,2.24
2023-04-02T06:34:03.847Z,2.45
2023-04-02T06:36:32.483Z,2.63
2023-04-02T06:39:05.307Z,2.87
2023-04-02T06:41:32.293Z,3.06
2023-04-02T06:44:04.121Z,3.21
2023-04-02T06:46:35.294Z,3.43
2023-04-02T06:49:14.056Z,3.63
2023-04-02T06:51:42.611Z,3.80
2023-04-02T06:54:14.129Z,3.97
2023-04-02T06:56:43.552Z,4.18
2023-04-02T06:59:10.593Z,4.34
2023-04-02T07:01:41.531Z,4.50
2023-04-02T07:04:10.881Z,4.62
2023-04-02T07:06:37.618Z,4.78
2023-04-02T07:09:05.065Z,4.90
2023-04-02T07:11:32.057Z,5.01
2023-04-02T07:13:58.865Z,5.14
2023-04-02T07:16:27.624Z,5.28
2023-04-02T07:18:55.838Z,5.42
2023-04-02T07:21:24.162Z,5.59
2023-04-02T07:23:50.943Z,5.77
2023-04-02T07:26:19.946Z,5.98
2023-04-02T07:28:46.761Z,6.15
2023-04-02T07:31:22.403Z,6.13
2023-04-02T07:33:49.364Z,6.11
2023-04-02T07:36:17.921Z,6.37
2023-04-02T07:38:46.378Z,6.54
2023-04-02T07:41:13.474Z,6.62
2023-04-02T07:43:41.221Z,6.71
2023-04-02T07:46:09.760Z,6.81
2023-04-02T07:48:36.664Z,6.96
2023-04-02T07:51:03.619Z,7.11
2023-04-02T07:53:32.883Z,7.29
2023-04-02T07:56:02.262Z,7.46
2023-04-02T07:58:29.812Z,7.67
2023-04-02T08:00:57.020Z,7.68
2023-04-02T08:03:23.885Z,7.92
2023-04-02T08:05:52.176Z,8.21
2023-04-02T08:08:19.080Z,8.50
2023-04-02T08:10:46.086Z,8.77
2023-04-02T08:13:14.311Z,8.97
2023-04-02T08:15:41.208Z,9.07
2023-04-02T08:18:08.217Z,9.18
2023-04-02T08:20:35.181Z,9.26
2023-04-02T08:23:02.270Z,8.84
2023-04-02T08:25:29.074Z,8.67
2023-04-02T08:27:55.863Z,8.73
2023-04-02T08:30:24.021Z,8.77
2023-04-02T08:32:50.852Z,8.82
2023-04-02T08:35:19.921Z,8.79
2023-04-02T08:37:46.695Z,8.84
2023-04-02T08:40:26.198Z,8.91
2023-04-02T08:43:05.949Z,8.80
2023-04-02T08:45:47.572Z,8.93
2023-04-02T08:48:15.269Z,9.01
2023-04-02T08:50:44.469Z,8.95
2023-04-02T08:53:17.832Z,9.20
2023-04-02T08:55:52.986Z,9.38
2023-04-02T08:58:29.483Z,9.58
2023-04-02T09:01:00.882Z,9.69
2023-04-02T09:03:31.760Z,9.81
2023-04-02T09:06:00.042Z,9.88
2023-04-02T09:08:30.013Z,9.93
2023-04-02T09:11:03.520Z,10.16
2023-04-02T09:13:33.066Z,10.52
2023-04-02T09:16:08.296Z,10.83
2023-04-02T09:18:36.268Z,11.19
2023-04-02T09:21:18.725Z,11.59
2023-04-02T09:23:45.458Z,11.78
2023-04-02T09:26:21.428Z,12.05
2023-04-02T09:28:49.072Z,12.43
2023-04-02T09:31:22.072Z,12.56
2023-04-02T09:33:50.897Z,12.31
2023-04-02T09:36:42.936Z,11.88
2023-04-02T09:39:17.479Z,11.41
2023-04-02T09:41:48.204Z,11.62
2023-04-02T09:44:24.469Z,11.77
2023-04-02T09:46:58.152Z,12.03
2023-04-02T09:49:27.301Z,12.24
2023-04-02T09:52:19.757Z,12.39
2023-04-02T09:54:47.119Z,12.42
2023-04-02T09:57:20.206Z,12.41
2023-04-02T09:59:47.321Z,12.39
2023-04-02T10:02:29.511Z,12.36
2023-04-02T10:04:56.434Z,12.36
2023-04-02T10:07:32.187Z,12.42
2023-04-02T10:09:59.663Z,12.46
2023-04-02T10:12:28.922Z,12.44
2023-04-02T10:14:57.965Z,12.17
2023-04-02T10:17:30.631Z,12.02
2023-04-02T10:20:02.199Z,12.19
2023-04-02T10:22:29.407Z,12.22
2023-04-02T10:24:58.451Z,12.36
2023-04-02T10:27:34.042Z,12.55
2023-04-02T10:30:13.333Z,12.30
2023-04-02T10:32:46.558Z,12.47
2023-04-02T10:35:23.163Z,12.67
2023-04-02T10:38:19.117Z,13.01
2023-04-02T10:40:48.848Z,12.12
2023-04-02T10:43:46.790Z,12.63
2023-04-02T10:46:20.959Z,12.99
2023-04-02T10:49:00.322Z,13.15
2023-04-02T10:51:38.870Z,12.65
2023-04-02T10:54:24.811Z,12.54
2023-04-02T10:56:53.602Z,12.26
2023-04-02T10:59:24.432Z,12.25
2023-04-02T11:01:55.247Z,12.71
2023-04-02T11:04:28.463Z,12.48
2023-04-02T11:07:11.167Z,12.47
2023-04-02T11:09:43.365Z,13.22
2023-04-02T11:12:20.512Z,13.39
2023-04-02T11:14:49.295Z,13.59
2023-04-02T11:17:19.552Z,13.72
2023-04-02T11:19:48.767Z,13.72
2023-04-02T11:22:17.616Z,13.66
2023-04-02T11:24:46.517Z,13.49
2023-04-02T11:27:26.407Z,13.50
2023-04-02T11:30:07.329Z,13.57
2023-04-02T11:32:37.291Z,12.86
2023-04-02T11:35:25.184Z,13.29
2023-04-02T11:37:53.096Z,14.18
2023-04-02T11:40:43.441Z,14.32
2023-04-02T11:43:47.631Z,14.50
2023-04-02T11:46:48.124Z,13.13
2023-04-02T11:49:39.457Z,12.83
2023-04-02T11:52:24.676Z,12.72
2023-04-02T11:55:04.941Z,12.79
2023-04-02T11:58:12.354Z,13.07
2023-04-02T12:01:20.574Z,13.56
2023-04-02T12:04:07.784Z,13.41
2023-04-02T12:06:48.048Z,13.01
2023-04-02T12:09:20.761Z,12.55
2023-04-02T12:11:49.158Z,12.96
2023-04-02T12:14:41.976Z,12.67
2023-04-02T12:17:26.044Z,13.39
2023-04-02T12:19:55.106Z,13.33
2023-04-02T12:22:23.972Z,12.96
2023-04-02T12:24:56.148Z,12.90
2023-04-02T12:27:26.119Z,12.68
2023-04-02T12:29:53.631Z,12.47
2023-04-02T12:32:27.712Z,12.23
2023-04-02T12:34:57.625Z,11.78
2023-04-02T12:37:27.254Z,11.87
2023-04-02T12:40:00.140Z,11.42
2023-04-02T12:42:29.120Z,11.38
2023-04-02T12:44:56.124Z,11.30
2023-04-02T12:47:23.504Z,11.51
2023-04-02T12:49:51.040Z,11.48
2023-04-02T12:52:20.699Z,11.56
2023-04-02T12:54:49.328Z,11.75
2023-04-02T12:57:41.642Z,11.91
2023-04-02T13:00:31.973Z,11.93
2023-04-02T13:03:02.277Z,12.27
2023-04-02T13:05:36.029Z,12.22
2023-04-02T13:08:04.075Z,12.36
2023-04-02T13:10:31.370Z,12.47
2023-04-02T13:13:02.021Z,12.46
2023-04-02T13:15:32.407Z,12.76
2023-04-02T13:18:07.434Z,12.91
2023-04-02T13:20:38.144Z,12.86
2023-04-02T13:23:32.498Z,12.86
2023-04-02T13:26:01.101Z,12.30
2023-04-02T13:28:32.713Z,12.06
2023-04-02T13:31:00.126Z,12.10
2023-04-02T13:33:28.538Z,12.08
2023-04-02T13:35:56.076Z,12.12
2023-04-02T13:38:23.209Z,12.13
2023-04-02T13:40:50.048Z,12.63
2023-04-02T13:43:20.181Z,12.91
2023-04-02T13:45:51.989Z,13.21
2023-04-02T13:48:18.973Z,13.30
2023-04-02T13:50:48.043Z,13.42
2023-04-02T13:53:23.470Z,13.47
2023-04-02T13:55:50.837Z,13.22
2023-04-02T13:58:18.011Z,13.24
2023-04-02T14:00:45.659Z,12.66
2023-04-02T14:03:19.316Z,12.52
2023-04-02T14:05:56.015Z,12.49
2023-04-02T14:08:31.599Z,12.10
2023-04-02T14:11:12.723Z,11.89
2023-04-02T14:13:57.527Z,11.74
2023-04-02T14:16:43.597Z,11.58
2023-04-02T14:19:27.606Z,11.10
2023-04-02T14:22:06.069Z,10.90
2023-04-02T14:24:44.405Z,10.77
2023-04-02T14:27:24.356Z,10.62
2023-04-02T14:30:00.476Z,10.76
2023-04-02T14:32:31.883Z,10.63
2023-04-02T14:35:11.030Z,10.82
2023-04-02T14:37:41.770Z,10.71
2023-04-02T14:40:19.564Z,10.82
2023-04-02T14:42:53.889Z,10.95
2023-04-02T14:45:36.335Z,11.19
2023-04-02T14:48:12.216Z,11.40
2023-04-02T14:50:42.485Z,11.59
2023-04-02T14:53:17.287Z,11.58
2023-04-02T14:55:48.168Z,11.38
2023-04-02T14:58:18.945Z,11.61
2023-04-02T15:00:54.941Z,11.76
2023-04-02T15:03:23.913Z,11.85
2023-04-02T15:05:57.089Z,11.91
2023-04-02T15:08:26.219Z,11.97
2023-04-02T15:11:04.896Z,12.07
2023-04-02T15:13:37.392Z,12.07
2023-04-02T15:16:11.485Z,12.14
2023-04-02T15:18:38.588Z,12.19
2023-04-02T15:21:22.055Z,12.02
2023-04-02T15:23:59.669Z,11.75
2023-04-02T15:26:36.496Z,11.60
2023-04-02T15:29:28.362Z,11.47
2023-04-02T15:32:04.049Z,11.56
2023-04-02T15:34:34.993Z,11.51
2023-04-02T15:37:12.514Z,11.54
2023-04-02T15:39:54.883Z,11.46
2023-04-02T15:42:24.989Z,11.42
2023-04-02T15:45:18.519Z,11.49
2023-04-02T15:47:58.550Z,11.43
2023-04-02T15:50:46.815Z,11.39
2023-04-02T15:53:34.147Z,11.46
2023-04-02T15:56:14.238Z,11.51
2023-04-02T15:58:57.935Z,11.43
2023-04-02T16:01:35.204Z,11.39
2023-04-02T16:04:27.222Z,11.42
2023-04-02T16:07:18.080Z,11.16
2023-04-02T16:09:52.554Z,10.97
2023-04-02T16:12:20.504Z,10.82
2023-04-02T16:14:49.727Z,10.44
2023-04-02T16:17:25.324Z,10.40
2023-04-02T16:19:56.645Z,10.16
2023-04-02T16:22:26.644Z,10.30
2023-04-02T16:25:00.184Z,9.89
2023-04-02T16:27:31.664Z,9.74
2023-04-02T16:30:28.897Z,9.60
2023-04-02T16:33:20.605Z,9.60
2023-04-02T16:35:57.160Z,9.75
2023-04-02T16:38:37.757Z,9.55
2023-04-02T16:41:13.762Z,9.46
2023-04-02T16:43:49.405Z,9.47
2023-04-02T16:46:38.121Z,9.40
2023-04-02T16:49:14.758Z,9.36
2023-04-02T16:51:49.732Z,9.33
2023-04-02T16:54:23.794Z,9.33
2023-04-02T16:57:13.634Z,9.35
2023-04-02T16:59:49.106Z,9.32
2023-04-02T17:02:26.219Z,9.19
2023-04-02T17:04:58.799Z,8.84
2023-04-02T17:07:34.264Z,8.88
2023-04-02T17:10:19.094Z,8.74
2023-04-02T17:12:51.307Z,8.72
2023-04-02T17:17:53.004Z,8.69
2023-04-02T17:20:23.398Z,8.58
2023-04-02T17:22:51.807Z,8.33
2023-04-02T17:25:24.248Z,8.30
2023-04-02T17:27:54.562Z,8.25
2023-04-02T17:30:35.023Z,7.97
2023-04-02T17:33:05.881Z,7.93
2023-04-02T17:35:43.802Z,7.77
2023-04-02T17:38:20.951Z,7.88
2023-04-02T17:40:54.041Z,7.87
2023-04-02T17:43:34.031Z,7.84
2023-04-02T17:46:09.041Z,7.79
2023-04-02T17:48:43.857Z,7.81
2023-04-02T17:51:20.398Z,7.84
2023-04-02T17:53:58.296Z,7.72
2023-04-02T17:56:42.883Z,7.65
2023-04-02T17:59:27.218Z,7.59
2023-04-02T18:02:02.152Z,7.56
2023-04-02T18:04:38.558Z,7.41
2023-04-02T18:07:23.524Z,7.42
2023-04-02T18:09:59.403Z,7.24
2023-04-02T18:12:41.206Z,7.14
2023-04-02T18:15:36.164Z,7.01
2023-04-02T18:18:15.856Z,6.75
2023-04-02T18:20:53.499Z,6.79
2023-04-02T18:23:33.455Z,6.75
2023-04-02T18:26:12.469Z,6.70
2023-04-02T18:28:48.487Z,6.72
2023-04-02T18:31:23.810Z,6.68
2023-04-02T18:34:26.468Z,6.59
2023-04-02T18:37:06.242Z,6.68
2023-04-02T18:39:44.444Z,6.74
2023-04-02T18:42:19.223Z,6.68
2023-04-02T18:44:54.827Z,6.64
2023-04-02T18:47:30.514Z,6.48
2023-04-02T18:50:11.591Z,6.52
2023-04-02T18:52:38.445Z,6.43
2023-04-02T18:55:13.096Z,6.38
2023-04-02T18:57:42.356Z,6.45
2023-04-02T19:00:21.508Z,6.44
2023-04-02T19:02:53.385Z,6.49
2023-04-02T19:05:26.595Z,6.55
2023-04-02T19:08:03.865Z,6.45
2023-04-02T19:10:33.745Z,6.42
2023-04-02T19:13:00.963Z,6.21
2023-04-02T19:15:38.581Z,6.09
2023-04-02T19:18:16.409Z,6.11
2023-04-02T19:20:50.215Z,6.16
2023-04-02T19:23:31.860Z,6.15
2023-04-02T19:26:04.973Z,6.20
2023-04-02T19:28:38.484Z,6.22
2023-04-02T19:31:31.932Z,6.15
2023-04-02T19:34:07.778Z,6.09
2023-04-02T19:36:45.637Z,6.06
2023-04-02T19:39:40.980Z,6.06
2023-04-02T19:42:15.543Z,5.96
2023-04-02T19:44:45.766Z,5.80
2023-04-02T19:47:13.084Z,5.91
2023-04-02T19:49:41.729Z,5.90
2023-04-02T19:52:08.466Z,5.80
2023-04-02T19:54:36.381Z,5.85
2023-04-02T19:57:05.418Z,5.80
2023-04-02T19:59:32.584Z,5.86
2023-04-02T20:01:59.311Z,5.85
2023-04-02T20:04:26.164Z,5.71
2023-04-02T20:06:54.368Z,5.74
2023-04-02T20:09:21.103Z,5.76
2023-04-02T20:11:47.906Z,5.79
2023-04-02T20:14:14.761Z,5.78
2023-04-02T20:16:42.685Z,5.82
2023-04-02T20:19:10.547Z,5.87
2023-04-02T20:21:37.295Z,5.80
2023-04-02T20:24:06.234Z,5.76
2023-04-02T20:26:34.104Z,5.83
2023-04-02T20:29:00.866Z,5.82
2023-04-02T20:31:27.882Z,5.82
2023-04-02T20:33:55.644Z,5.78
2023-04-02T20:36:22.565Z,5.76
2023-04-02T20:38:49.419Z,5.74
2023-04-02T20:41:18.303Z,5.80
2023-04-02T20:43:45.016Z,5.77
2023-04-02T20:46:12.606Z,5.65
2023-04-02T20:48:40.270Z,5.62
2023-04-02T20:51:08.666Z,5.51
2023-04-02T20:53:36.918Z,5.51
2023-04-02T20:56:04.296Z,5.66
2023-04-02T20:58:33.113Z,5.56
2023-04-02T21:01:11.464Z,5.55
2023-04-02T21:03:39.100Z,5.67
2023-04-02T21:06:06.544Z,5.75
2023-04-02T21:08:33.392Z,5.74
2023-04-02T21:11:04.799Z,5.63
2023-04-02T21:13:34.337Z,5.64
2023-04-02T21:16:01.127Z,5.25
2023-04-02T21:18:27.885Z,5.32
2023-04-02T21:20:59.030Z,5.13
2023-04-02T21:23:25.875Z,5.18
2023-04-02T21:26:00.382Z,4.96
2023-04-02T21:28:28.125Z,4.95
2023-04-02T21:31:04.362Z,4.87
2023-04-02T21:33:31.686Z,4.86
2023-04-02T21:36:05.196Z,4.80
2023-04-02T21:38:32.012Z,4.66
2023-04-02T21:41:09.532Z,4.65
2023-04-02T21:43:36.368Z,4.76
2023-04-02T21:46:04.774Z,4.65
2023-04-02T21:48:31.962Z,4.71
2023-04-02T21:51:05.830Z,4.57
2023-04-02T21:53:33.036Z,4.54
2023-04-02T21:56:04.669Z,4.61
2023-04-02T21:58:31.504Z,4.64
2023-04-02T22:00:58.716Z,4.55
2023-04-02T22:03:31.675Z,4.41
2023-04-02T22:06:04.135Z,4.27
2023-04-02T22:08:30.968Z,4.21
2023-04-02T22:10:57.690Z,4.19
2023-04-02T22:13:24.453Z,4.21
2023-04-02T22:15:51.522Z,4.15
2023-04-02T22:18:18.284Z,4.00
2023-04-02T22:20:46.903Z,3.91
2023-04-02T22:23:13.998Z,3.92
2023-04-02T22:25:41.084Z,4.09
2023-04-02T22:28:08.198Z,4.15
2023-04-02T22:30:35.413Z,4.21
2023-04-02T22:33:02.760Z,4.24
2023-04-02T22:35:29.976Z,4.21
2023-04-02T22:37:58.082Z,4.16
2023-04-02T22:40:25.390Z,4.04
2023-04-02T22:42:52.160Z,4.12
2023-04-02T22:45:19.321Z,4.25
2023-04-02T22:47:46.199Z,4.26
2023-04-02T22:50:12.968Z,4.17
2023-04-02T22:52:39.742Z,4.14
2023-04-02T22:55:09.693Z,4.27
2023-04-02T22:57:36.499Z,4.30
2023-04-02T23:00:05.258Z,4.28
2023-04-02T23:02:32.182Z,4.36
2023-04-02T23:04:58.972Z,4.36
2023-04-02T23:07:25.704Z,4.33
2023-04-02T23:09:52.458Z,4.23
2023-04-02T23:12:20.625Z,4.37
2023-04-02T23:14:47.412Z,4.15
2023-04-02T23:17:14.136Z,4.08
2023-04-02T23:19:41.089Z,4.04
2023-04-02T23:22:07.898Z,4.02
2023-04-02T23:24:34.667Z,3.98
2023-04-02T23:27:01.481Z,3.83
2023-04-02T23:29:30.500Z,3.70
2023-04-02T23:31:57.369Z,3.86
2023-04-02T23:34:24.191Z,3.89
2023-04-02T23:36:50.925Z,3.85
2023-04-02T23:39:17.756Z,3.77
2023-04-02T23:41:44.464Z,3.71
2023-04-02T23:44:11.546Z,3.68
2023-04-02T23:46:39.725Z,3.71
2023-04-02T23:49:06.568Z,3.72
2023-04-02T23:51:33.505Z,3.73
2023-04-02T23:54:00.603Z,3.76
2023-04-02T23:56:28.381Z,3.80
2023-04-02T23:58:55.163Z,3.71
